createdAt,value
2018-08-22T20:42:29.341Z,57.20
2018-08-22T20:44:57.921Z,57.10
2018-08-22T20:47:26.454Z,57.40
2018-08-22T20:49:55.392Z,57.70
2018-08-22T20:52:23.965Z,57.70
2018-08-22T20:54:57.869Z,58.00
2018-08-22T20:57:27.427Z,58.00
2018-08-22T20:59:55.910Z,57.70
2018-08-22T21:02:24.450Z,58.30
2018-08-22T21:04:52.960Z,58.60
2018-08-22T21:07:25.963Z,58.90
2018-08-22T21:09:54.441Z,59.20
2018-08-22T21:12:23.014Z,59.50
2018-08-22T21:14:51.584Z,60.00
2018-08-22T21:17:20.274Z,60.40
2018-08-22T21:19:48.762Z,60.20
2018-08-22T21:22:26.599Z,60.90
2018-08-22T21:24:57.353Z,61.00
2018-08-22T21:27:25.850Z,61.20
2018-08-22T21:29:54.522Z,61.60
2018-08-22T21:32:23.068Z,61.50
2018-08-22T21:34:51.624Z,61.80
2018-08-22T21:37:25.359Z,61.80
2018-08-22T21:39:54.012Z,62.10
2018-08-22T21:42:29.856Z,62.20
2018-08-22T21:44:58.453Z,62.10
2018-08-22T21:47:26.977Z,62.40
2018-08-22T21:49:55.620Z,62.40
2018-08-22T21:52:24.225Z,62.60
2018-08-22T21:54:52.935Z,62.40
2018-08-22T21:57:21.473Z,62.50
2018-08-22T21:59:55.888Z,62.60
2018-08-22T22:02:24.431Z,62.70
2018-08-22T22:04:53.035Z,62.80
2018-08-22T22:07:21.580Z,62.70
2018-08-22T22:09:51.713Z,62.70
2018-08-22T22:12:25.416Z,62.80
2018-08-22T22:14:53.946Z,62.50
2018-08-22T22:17:22.533Z,62.40
2018-08-22T22:19:51.054Z,62.30
2018-08-22T22:22:19.878Z,62.50
2018-08-22T22:24:52.752Z,62.40
2018-08-22T22:27:21.443Z,62.40
2018-08-22T22:29:51.117Z,62.20
2018-08-22T22:32:19.674Z,61.70
2018-08-22T22:34:48.231Z,61.40
2018-08-22T22:37:16.823Z,61.10
2018-08-22T22:39:46.659Z,61.00
2018-08-22T22:42:20.356Z,61.20
2018-08-22T22:44:50.915Z,61.80
2018-08-22T22:47:24.727Z,61.70
2018-08-22T22:49:53.288Z,61.90
2018-08-22T22:52:32.649Z,61.70
2018-08-22T22:55:02.993Z,61.90
2018-08-22T22:57:33.393Z,61.90
2018-08-22T23:00:03.433Z,62.00
2018-08-22T23:02:32.764Z,62.80
2018-08-22T23:05:01.939Z,62.00
2018-08-22T23:07:32.499Z,61.80
2018-08-22T23:10:02.417Z,62.00
2018-08-22T23:12:47.333Z,62.20
2018-08-22T23:15:20.518Z,62.30
2018-08-22T23:17:50.332Z,62.50
2018-08-22T23:20:36.299Z,63.10
2018-08-22T23:23:15.733Z,63.40
2018-08-22T23:25:44.913Z,63.60
2018-08-22T23:28:13.427Z,64.00
2018-08-22T23:30:42.002Z,64.50
2018-08-22T23:33:10.555Z,64.50
2018-08-22T23:35:39.152Z,64.40
2018-08-22T23:38:16.427Z,64.80
2018-08-22T23:40:47.058Z,65.30
2018-08-22T23:43:15.603Z,65.40
2018-08-22T23:45:49.449Z,65.30
2018-08-22T23:48:23.363Z,65.40
2018-08-22T23:51:02.195Z,65.70
2018-08-22T23:53:37.345Z,66.00
2018-08-22T23:56:16.708Z,66.00
2018-08-22T23:58:46.724Z,65.80
